createdAt,value
2019-03-30T00:01:02.850Z,168.97
2019-03-30T00:03:35.227Z,178.93
2019-03-30T00:06:08.129Z,169.63
2019-03-30T00:08:40.673Z,174.63
2019-03-30T00:11:12.070Z,165.67
2019-03-30T00:13:46.290Z,169.10
2019-03-30T00:16:17.457Z,167.27
2019-03-30T00:18:50.680Z,151.83
2019-03-30T00:21:25.556Z,143.77
2019-03-30T00:23:56.519Z,135.40
2019-03-30T00:26:29.563Z,146.03
2019-03-30T00:29:04.372Z,205.53
2019-03-30T00:31:36.659Z,206.27
2019-03-30T00:34:08.967Z,144.67
2019-03-30T00:36:59.144Z,128.70
2019-03-30T00:39:31.877Z,118.67
2019-03-30T00:42:04.414Z,119.23
2019-03-30T00:44:36.841Z,119.77
2019-03-30T00:47:27.421Z,99.67
2019-03-30T00:49:58.408Z,129.97
2019-03-30T00:52:31.057Z,130.47
2019-03-30T00:55:02.082Z,157.67
2019-03-30T00:57:33.399Z,151.40
2019-03-30T01:00:05.859Z,215.83
2019-03-30T01:02:35.735Z,222.77
2019-03-30T01:05:12.803Z,308.43
2019-03-30T01:07:47.152Z,237.77
2019-03-30T01:10:39.204Z,217.57
2019-03-30T01:13:13.017Z,192.13
2019-03-30T01:15:44.920Z,183.40
2019-03-30T01:18:16.450Z,166.30
2019-03-30T01:20:47.491Z,169.77
2019-03-30T01:23:19.893Z,153.23
2019-03-30T01:25:52.293Z,143.13
2019-03-30T01:28:24.218Z,147.00
2019-03-30T01:30:58.224Z,147.00
2019-03-30T01:33:30.152Z,132.63
2019-03-30T01:36:00.246Z,178.03
2019-03-30T01:38:33.113Z,157.80
2019-03-30T01:41:05.695Z,147.70
2019-03-30T01:43:36.682Z,175.67
2019-03-30T01:46:07.924Z,166.13
2019-03-30T01:48:39.748Z,151.83
2019-03-30T01:51:12.270Z,148.00
2019-03-30T01:53:44.602Z,169.27
2019-03-30T01:56:14.670Z,176.23
2019-03-30T01:58:44.840Z,199.00
2019-03-30T02:01:15.954Z,180.57
2019-03-30T02:03:47.138Z,189.13
2019-03-30T02:06:20.419Z,225.90
2019-03-30T02:08:52.890Z,206.47
2019-03-30T02:11:22.982Z,182.63
2019-03-30T02:13:56.743Z,192.13
2019-03-30T02:16:27.807Z,185.50
2019-03-30T02:18:57.737Z,198.10
2019-03-30T02:21:28.753Z,177.60
2019-03-30T02:23:58.712Z,158.53
2019-03-30T02:26:31.089Z,160.00
2019-03-30T02:29:04.385Z,161.70
2019-03-30T02:31:36.375Z,141.07
2019-03-30T02:34:07.329Z,142.77
2019-03-30T02:36:38.811Z,158.43
2019-03-30T02:39:11.555Z,164.27
2019-03-30T02:41:42.424Z,155.13
2019-03-30T02:44:13.514Z,209.63
2019-03-30T02:46:44.470Z,150.77
2019-03-30T02:49:16.785Z,201.50
2019-03-30T02:51:48.184Z,183.90
2019-03-30T02:54:19.382Z,156.80
2019-03-30T02:56:51.514Z,196.57
2019-03-30T02:59:23.329Z,161.37
2019-03-30T03:02:10.024Z,177.33
2019-03-30T03:04:42.470Z,166.90
2019-03-30T03:07:15.473Z,161.80
2019-03-30T03:09:50.743Z,175.30
2019-03-30T03:12:24.177Z,167.80
2019-03-30T03:14:55.424Z,164.70
2019-03-30T03:17:26.920Z,185.00
2019-03-30T03:19:57.794Z,299.00
2019-03-30T03:22:29.839Z,269.57
2019-03-30T03:25:01.252Z,232.67
2019-03-30T03:27:31.452Z,191.60
2019-03-30T03:30:00.941Z,182.07
2019-03-30T03:32:33.565Z,164.03
2019-03-30T03:35:06.420Z,188.67
2019-03-30T03:37:46.532Z,148.93
2019-03-30T03:40:20.186Z,173.83
2019-03-30T03:42:55.148Z,156.73
2019-03-30T03:45:28.380Z,151.43
2019-03-30T03:48:04.310Z,145.43
2019-03-30T03:50:42.788Z,147.13
2019-03-30T03:53:20.430Z,166.77
2019-03-30T03:55:55.142Z,154.03
2019-03-30T03:58:29.976Z,146.98
2019-03-30T04:01:03.682Z,150.30
2019-03-30T04:03:50.793Z,165.13
2019-03-30T04:06:28.888Z,149.03
2019-03-30T04:09:01.784Z,154.47
2019-03-30T04:11:34.842Z,168.90
2019-03-30T04:14:28.412Z,175.90
2019-03-30T04:17:00.029Z,183.27
2019-03-30T04:22:18.856Z,158.87
2019-03-30T04:24:52.597Z,160.10
2019-03-30T04:27:30.529Z,164.13
2019-03-30T04:30:23.302Z,149.93
2019-03-30T04:32:59.891Z,175.27
2019-03-30T04:35:31.247Z,181.00
2019-03-30T04:38:04.475Z,184.53
2019-03-30T04:40:41.368Z,173.03
2019-03-30T04:43:15.915Z,167.60
2019-03-30T04:45:50.304Z,166.17
2019-03-30T04:48:23.372Z,161.20
2019-03-30T04:50:55.774Z,169.50
2019-03-30T04:53:27.123Z,161.77
2019-03-30T04:55:58.025Z,170.57
2019-03-30T04:58:28.195Z,160.70
2019-03-30T05:01:02.847Z,161.20
2019-03-30T05:03:37.054Z,185.57
2019-03-30T05:06:08.175Z,180.40
2019-03-30T05:08:39.374Z,172.83
2019-03-30T05:11:13.848Z,164.73
2019-03-30T05:13:47.333Z,163.97
2019-03-30T05:16:21.174Z,151.43
2019-03-30T05:18:53.106Z,135.50
2019-03-30T05:21:27.745Z,124.43
2019-03-30T05:23:59.359Z,129.40
2019-03-30T05:26:35.934Z,141.30
2019-03-30T05:29:08.634Z,143.82
2019-03-30T05:31:41.803Z,139.07
2019-03-30T05:34:19.163Z,127.62
2019-03-30T05:36:52.128Z,144.47
2019-03-30T05:39:22.394Z,146.03
2019-03-30T05:41:56.305Z,170.23
2019-03-30T05:44:29.319Z,168.23
2019-03-30T05:47:01.274Z,146.60
2019-03-30T05:49:35.880Z,139.27
2019-03-30T05:52:09.139Z,144.43
2019-03-30T05:54:42.265Z,135.73
2019-03-30T05:57:16.755Z,140.23
2019-03-30T05:59:51.779Z,126.43
2019-03-30T06:02:23.082Z,133.27
2019-03-30T06:04:54.076Z,142.83
2019-03-30T06:07:25.354Z,124.78
2019-03-30T06:09:57.886Z,138.13
2019-03-30T06:12:30.628Z,107.40
2019-03-30T06:15:01.827Z,114.63
2019-03-30T06:17:32.976Z,109.10
2019-03-30T06:20:05.695Z,106.37
2019-03-30T06:22:40.566Z,94.93
2019-03-30T06:25:10.214Z,93.80
2019-03-30T06:27:40.772Z,97.27
2019-03-30T06:30:25.112Z,83.45
2019-03-30T06:32:55.589Z,88.00
2019-03-30T06:35:28.236Z,109.73
2019-03-30T06:37:59.211Z,110.27
2019-03-30T06:40:30.548Z,109.20
2019-03-30T06:43:01.897Z,100.97
2019-03-30T06:45:35.959Z,114.83
2019-03-30T06:48:06.445Z,96.57
2019-03-30T06:50:38.055Z,88.47
2019-03-30T06:53:10.859Z,72.90
2019-03-30T06:55:42.103Z,70.17
2019-03-30T06:58:15.265Z,67.87
2019-03-30T07:00:49.167Z,61.20
2019-03-30T07:03:21.394Z,55.03
2019-03-30T07:05:51.281Z,73.50
2019-03-30T07:08:23.555Z,57.47
2019-03-30T07:10:57.150Z,76.77
2019-03-30T07:13:32.370Z,71.33
2019-03-30T07:16:06.395Z,63.80
2019-03-30T07:18:40.361Z,49.40
2019-03-30T07:21:12.414Z,59.60
2019-03-30T07:23:46.232Z,47.90
2019-03-30T07:26:17.766Z,46.00
2019-03-30T07:28:50.719Z,46.00
2019-03-30T07:31:23.099Z,43.80
2019-03-30T07:33:59.114Z,43.83
2019-03-30T07:36:30.699Z,46.17
2019-03-30T07:39:05.141Z,45.20
2019-03-30T07:41:35.305Z,47.70
2019-03-30T07:44:07.374Z,43.87
2019-03-30T07:46:38.822Z,47.70
2019-03-30T07:49:11.147Z,58.33
2019-03-30T07:51:45.006Z,50.73
2019-03-30T07:54:17.121Z,41.95
2019-03-30T07:57:03.866Z,37.33
2019-03-30T07:59:21.670Z,49.17
2019-03-30T08:01:52.834Z,45.53
2019-03-30T08:04:24.172Z,36.38
2019-03-30T08:06:57.146Z,33.63
2019-03-30T08:09:27.378Z,34.17
2019-03-30T08:11:57.263Z,41.30
2019-03-30T08:14:27.442Z,41.30
2019-03-30T08:17:01.144Z,39.10
2019-03-30T08:19:34.163Z,37.70
2019-03-30T08:22:04.085Z,34.00
2019-03-30T08:24:34.959Z,36.07
2019-03-30T08:27:04.799Z,27.37
2019-03-30T08:29:37.863Z,36.00
2019-03-30T08:32:08.834Z,28.23
2019-03-30T08:34:58.153Z,26.60
2019-03-30T08:37:29.298Z,26.40
2019-03-30T08:40:04.125Z,36.80
2019-03-30T08:42:35.283Z,26.57
2019-03-30T08:45:11.026Z,23.98
2019-03-30T08:47:43.343Z,22.50
2019-03-30T08:50:14.509Z,37.27
2019-03-30T08:52:47.267Z,24.93
2019-03-30T08:55:17.260Z,22.07
2019-03-30T08:57:51.459Z,25.03
2019-03-30T09:00:29.326Z,78.10
2019-03-30T09:03:01.809Z,36.20
2019-03-30T09:05:33.012Z,27.47
2019-03-30T09:08:24.352Z,24.53
2019-03-30T09:10:59.121Z,30.63
2019-03-30T09:13:31.964Z,23.23
2019-03-30T09:16:06.889Z,33.13
2019-03-30T09:18:43.077Z,32.63
2019-03-30T09:21:18.117Z,35.27
2019-03-30T09:23:52.349Z,24.27
2019-03-30T09:26:28.565Z,75.63
2019-03-30T09:28:58.638Z,24.23
2019-03-30T09:31:29.893Z,19.07
2019-03-30T09:34:03.002Z,17.57
2019-03-30T09:36:36.619Z,28.83
2019-03-30T09:39:10.212Z,24.57
2019-03-30T09:41:45.079Z,17.00
2019-03-30T09:44:17.880Z,15.80
2019-03-30T09:46:47.758Z,15.80
2019-03-30T09:49:17.684Z,22.98
2019-03-30T09:51:48.340Z,17.33
2019-03-30T09:54:24.079Z,23.23
2019-03-30T09:56:53.522Z,16.57
2019-03-30T09:59:25.646Z,38.20
2019-03-30T10:01:57.556Z,17.03
2019-03-30T10:04:27.658Z,18.25
2019-03-30T10:06:58.959Z,17.80
2019-03-30T10:09:49.354Z,16.00
2019-03-30T10:12:20.893Z,17.48
2019-03-30T10:14:55.212Z,18.57
2019-03-30T10:17:29.866Z,20.43
2019-03-30T10:20:04.599Z,15.57
2019-03-30T10:22:34.439Z,16.00
2019-03-30T10:25:04.765Z,17.17
2019-03-30T10:27:34.096Z,15.07
2019-03-30T10:30:07.650Z,15.40
2019-03-30T10:32:42.128Z,48.50
2019-03-30T10:35:16.196Z,20.17
2019-03-30T10:40:21.021Z,15.17
2019-03-30T10:42:53.564Z,13.60
2019-03-30T10:45:28.464Z,14.40
2019-03-30T10:48:01.356Z,202.50
2019-03-30T10:50:31.365Z,20.73
2019-03-30T10:53:01.616Z,12.80
2019-03-30T10:55:52.500Z,11.87
2019-03-30T10:58:26.451Z,25.57
2019-03-30T11:00:59.942Z,11.10
2019-03-30T11:03:33.882Z,12.50
2019-03-30T11:06:08.531Z,12.90
2019-03-30T11:08:44.442Z,10.53
2019-03-30T11:11:17.317Z,10.60
2019-03-30T11:13:47.328Z,9.53
2019-03-30T11:16:21.308Z,9.10
2019-03-30T11:18:53.278Z,12.33
2019-03-30T11:21:29.092Z,13.80
2019-03-30T11:24:06.516Z,12.50
2019-03-30T11:26:38.044Z,11.37
2019-03-30T11:29:12.538Z,12.17
2019-03-30T11:31:46.399Z,9.70
2019-03-30T11:34:20.242Z,9.30
2019-03-30T11:36:54.004Z,44.60
2019-03-30T11:39:28.840Z,14.47
2019-03-30T11:42:03.619Z,20.93
2019-03-30T11:44:36.117Z,15.73
2019-03-30T11:47:11.726Z,13.58
2019-03-30T11:49:45.337Z,19.23
2019-03-30T11:52:17.744Z,26.47
2019-03-30T11:54:50.055Z,18.00
2019-03-30T11:57:23.057Z,17.60
2019-03-30T11:59:55.525Z,14.97
2019-03-30T12:02:28.595Z,18.60
2019-03-30T12:05:00.367Z,16.37
2019-03-30T12:07:35.513Z,12.25
2019-03-30T12:10:11.333Z,14.63
2019-03-30T12:12:43.578Z,14.15
2019-03-30T12:15:17.590Z,14.27
2019-03-30T12:17:50.228Z,16.57
2019-03-30T12:20:21.385Z,31.53
2019-03-30T12:22:55.369Z,17.23
2019-03-30T12:25:35.993Z,14.00
2019-03-30T12:28:05.752Z,14.58
2019-03-30T12:30:35.781Z,27.90
2019-03-30T12:33:08.955Z,14.75
2019-03-30T12:35:42.993Z,14.73
2019-03-30T12:38:17.200Z,24.93
2019-03-30T12:40:52.245Z,17.25
2019-03-30T12:43:24.811Z,31.75
2019-03-30T12:45:57.607Z,16.05
2019-03-30T12:48:29.237Z,18.27
2019-03-30T12:51:02.114Z,16.87
2019-03-30T12:53:34.694Z,16.27
2019-03-30T12:56:09.110Z,11.73
2019-03-30T12:58:43.931Z,12.43
2019-03-30T13:01:16.473Z,11.87
2019-03-30T13:03:50.430Z,12.37
2019-03-30T13:06:21.361Z,22.90
2019-03-30T13:09:01.335Z,16.97
2019-03-30T13:11:34.202Z,25.92
2019-03-30T13:14:05.173Z,24.10
2019-03-30T13:16:37.115Z,14.45
2019-03-30T13:19:09.546Z,11.20
2019-03-30T13:21:52.048Z,13.15
2019-03-30T13:24:18.080Z,11.48
2019-03-30T13:26:49.147Z,12.55
2019-03-30T13:29:21.455Z,22.60
2019-03-30T13:31:51.415Z,43.42
2019-03-30T13:34:24.315Z,19.57
2019-03-30T13:36:57.717Z,14.00
2019-03-30T13:39:27.633Z,11.10
2019-03-30T13:41:58.645Z,12.87
2019-03-30T13:44:29.832Z,9.93
2019-03-30T13:47:02.825Z,11.33
2019-03-30T13:49:33.872Z,13.93
2019-03-30T13:52:05.740Z,24.33
2019-03-30T13:54:38.668Z,30.47
2019-03-30T13:57:10.158Z,14.07
2019-03-30T13:59:44.903Z,18.53
2019-03-30T14:02:17.147Z,19.57
2019-03-30T14:04:52.566Z,18.53
2019-03-30T14:07:22.842Z,12.90
2019-03-30T14:09:52.756Z,27.80
2019-03-30T14:12:23.874Z,14.43
2019-03-30T14:14:58.857Z,17.33
2019-03-30T14:17:32.558Z,29.70
2019-03-30T14:20:06.560Z,13.87
2019-03-30T14:22:40.595Z,19.50
2019-03-30T14:25:13.496Z,17.17
2019-03-30T14:27:48.496Z,21.20
2019-03-30T14:30:37.781Z,16.67
2019-03-30T14:33:10.459Z,13.93
2019-03-30T14:35:43.773Z,16.07
2019-03-30T14:38:14.743Z,18.67
2019-03-30T14:40:46.872Z,16.50
2019-03-30T14:43:19.437Z,20.13
2019-03-30T14:45:54.869Z,17.63
2019-03-30T14:48:26.261Z,12.60
2019-03-30T14:50:57.912Z,17.20
2019-03-30T14:53:27.919Z,14.60
2019-03-30T14:56:00.462Z,12.17
2019-03-30T14:58:31.505Z,15.23
2019-03-30T15:01:03.284Z,15.83
2019-03-30T15:03:34.724Z,17.97
2019-03-30T15:06:10.057Z,15.77
2019-03-30T15:08:41.660Z,13.53
2019-03-30T15:11:12.592Z,17.43
2019-03-30T15:13:42.496Z,17.43
2019-03-30T15:16:17.524Z,17.37
2019-03-30T15:18:50.712Z,15.90
2019-03-30T15:21:22.089Z,16.90
2019-03-30T15:23:53.907Z,16.17
2019-03-30T15:26:23.243Z,18.17
2019-03-30T15:28:54.932Z,18.33
2019-03-30T15:31:27.540Z,18.40
2019-03-30T15:34:02.806Z,22.10
2019-03-30T15:36:37.698Z,23.83
2019-03-30T15:39:09.887Z,31.10
2019-03-30T15:41:40.320Z,16.97
2019-03-30T15:44:10.896Z,16.97
2019-03-30T15:46:42.445Z,18.20
2019-03-30T15:49:15.099Z,22.17
2019-03-30T15:51:46.167Z,26.80
2019-03-30T15:54:19.546Z,19.00
2019-03-30T15:56:50.825Z,19.13
2019-03-30T15:59:24.036Z,25.68
2019-03-30T16:01:56.698Z,21.43
2019-03-30T16:04:26.101Z,35.50
2019-03-30T16:07:01.134Z,30.63
2019-03-30T16:09:35.737Z,24.33
2019-03-30T16:12:07.007Z,30.83
2019-03-30T16:14:38.617Z,28.47
2019-03-30T16:17:09.481Z,27.83
2019-03-30T16:19:45.202Z,27.10
2019-03-30T16:22:17.950Z,41.45
2019-03-30T16:24:48.995Z,31.07
2019-03-30T16:27:28.673Z,160.37
2019-03-30T16:29:50.917Z,117.53
2019-03-30T16:32:24.297Z,49.83
2019-03-30T16:34:55.506Z,48.23
2019-03-30T16:37:26.448Z,54.23
2019-03-30T16:39:57.502Z,42.53
2019-03-30T16:42:31.007Z,55.93
2019-03-30T16:45:03.740Z,83.90
2019-03-30T16:47:37.898Z,87.33
2019-03-30T16:50:16.215Z,140.13
2019-03-30T16:52:48.201Z,127.45
2019-03-30T16:55:21.484Z,158.67
2019-03-30T16:57:54.659Z,133.23
2019-03-30T17:00:27.573Z,101.60
2019-03-30T17:03:00.865Z,79.33
2019-03-30T17:05:34.498Z,76.03
2019-03-30T17:08:05.749Z,100.10
2019-03-30T17:10:40.092Z,116.97
2019-03-30T17:13:09.994Z,122.57
2019-03-30T17:15:41.437Z,140.90
2019-03-30T17:18:13.048Z,137.03
2019-03-30T17:20:44.487Z,121.70
2019-03-30T17:23:15.978Z,107.37
2019-03-30T17:25:47.370Z,112.40
2019-03-30T17:28:17.558Z,116.80
2019-03-30T17:30:47.578Z,113.57
2019-03-30T17:33:18.686Z,97.93
2019-03-30T17:35:47.988Z,99.17
2019-03-30T17:38:20.085Z,102.87
2019-03-30T17:40:54.682Z,97.97
2019-03-30T17:43:27.259Z,88.30
2019-03-30T17:45:58.708Z,101.13
2019-03-30T17:48:30.999Z,114.10
2019-03-30T17:51:02.609Z,67.40
2019-03-30T17:53:34.937Z,55.80
2019-03-30T17:56:06.414Z,60.47
2019-03-30T17:58:38.550Z,80.20
2019-03-30T18:01:08.924Z,103.87
2019-03-30T18:03:41.398Z,93.63
2019-03-30T18:06:11.869Z,135.23
2019-03-30T18:08:44.821Z,175.33
2019-03-30T18:11:16.769Z,207.83
2019-03-30T18:13:51.370Z,228.83
2019-03-30T18:16:23.017Z,279.63
2019-03-30T18:18:53.431Z,383.07
2019-03-30T18:21:24.939Z,517.87
2019-03-30T18:23:57.754Z,534.37
2019-03-30T18:26:32.059Z,283.07
2019-03-30T18:29:02.693Z,575.77
2019-03-30T18:31:36.572Z,693.33
2019-03-30T18:34:11.368Z,665.97
2019-03-30T18:36:46.640Z,624.67
2019-03-30T18:39:20.739Z,602.17
2019-03-30T18:41:54.211Z,570.90
2019-03-30T18:44:26.312Z,521.83
2019-03-30T18:46:56.508Z,542.87
2019-03-30T18:49:29.548Z,595.13
2019-03-30T18:52:00.437Z,608.73
2019-03-30T18:54:32.663Z,529.87
2019-03-30T18:57:06.020Z,518.37
2019-03-30T18:59:39.920Z,434.20
2019-03-30T19:02:12.522Z,497.87
2019-03-30T19:04:42.510Z,474.87
2019-03-30T19:07:12.438Z,398.40
2019-03-30T19:09:42.571Z,360.53
2019-03-30T19:12:15.075Z,299.87
2019-03-30T19:14:49.440Z,325.20
2019-03-30T19:17:20.715Z,289.97
2019-03-30T19:19:56.295Z,261.03
2019-03-30T19:22:26.404Z,243.63
2019-03-30T19:24:57.354Z,237.97
2019-03-30T19:27:31.028Z,146.73
2019-03-30T19:30:02.598Z,59.97
2019-03-30T19:32:35.885Z,80.03
2019-03-30T19:35:11.339Z,81.23
2019-03-30T19:37:41.318Z,263.03
2019-03-30T19:40:12.159Z,301.03
2019-03-30T19:42:44.712Z,170.83
2019-03-30T19:45:16.730Z,163.30
2019-03-30T19:47:50.694Z,234.77
2019-03-30T19:50:20.692Z,214.73
2019-03-30T19:52:52.395Z,198.70
2019-03-30T19:55:23.612Z,278.62
2019-03-30T19:57:59.160Z,286.83
2019-03-30T20:00:33.041Z,284.20
2019-03-30T20:03:09.533Z,392.60
2019-03-30T20:05:44.600Z,318.77
2019-03-30T20:08:14.378Z,192.00
2019-03-30T20:10:47.776Z,267.90
2019-03-30T20:13:20.699Z,253.77
2019-03-30T20:15:52.809Z,128.07
2019-03-30T20:18:28.781Z,71.43
2019-03-30T20:21:00.893Z,81.13
2019-03-30T20:23:35.463Z,178.07
2019-03-30T20:26:07.384Z,117.77
2019-03-30T20:28:40.112Z,176.07
2019-03-30T20:31:16.538Z,138.33
2019-03-30T20:33:50.784Z,221.33
2019-03-30T20:36:22.053Z,276.53
2019-03-30T20:38:52.930Z,241.30
2019-03-30T20:41:25.598Z,243.88
2019-03-30T20:43:58.230Z,254.40
2019-03-30T20:46:29.617Z,288.40
2019-03-30T20:49:01.459Z,395.17
2019-03-30T20:51:32.736Z,442.97
2019-03-30T20:54:07.608Z,620.80
2019-03-30T20:56:39.868Z,520.80
2019-03-30T20:59:11.005Z,417.17
2019-03-30T21:04:31.229Z,354.00
2019-03-30T21:07:00.570Z,357.30
2019-03-30T21:09:33.742Z,306.33
2019-03-30T21:12:04.520Z,299.20
2019-03-30T21:14:34.363Z,285.23
2019-03-30T21:17:07.433Z,247.00
2019-03-30T21:19:39.297Z,275.30
2019-03-30T21:22:10.519Z,259.40
2019-03-30T21:24:44.247Z,269.73
2019-03-30T21:27:14.165Z,289.20
2019-03-30T21:29:54.596Z,251.53
2019-03-30T21:32:22.692Z,146.90
2019-03-30T21:34:54.106Z,183.97
2019-03-30T21:37:23.996Z,180.33
2019-03-30T21:39:55.517Z,201.93
2019-03-30T21:42:36.711Z,218.93
2019-03-30T21:45:11.116Z,220.73
2019-03-30T21:47:44.624Z,233.03
2019-03-30T21:50:18.969Z,222.63
2019-03-30T21:52:50.790Z,246.60
2019-03-30T21:55:22.301Z,233.67
2019-03-30T21:58:11.004Z,230.27
2019-03-30T22:00:43.248Z,205.53
2019-03-30T22:03:14.564Z,242.50
2019-03-30T22:05:49.690Z,248.23
2019-03-30T22:10:54.612Z,183.70
2019-03-30T22:13:28.891Z,89.87
2019-03-30T22:16:00.110Z,88.63
2019-03-30T22:18:35.138Z,106.27
2019-03-30T22:21:06.190Z,110.27
2019-03-30T22:23:38.176Z,97.33
2019-03-30T22:26:10.826Z,104.87
2019-03-30T22:28:42.107Z,100.50
2019-03-30T22:31:17.060Z,109.70
2019-03-30T22:33:49.423Z,112.00
2019-03-30T22:36:33.866Z,116.45
2019-03-30T22:39:04.950Z,119.33
2019-03-30T22:41:37.874Z,130.00
2019-03-30T22:44:10.465Z,149.43
2019-03-30T22:46:42.329Z,172.53
2019-03-30T22:49:15.225Z,170.80
2019-03-30T22:51:45.172Z,180.30
2019-03-30T22:54:17.723Z,233.60
2019-03-30T22:56:48.746Z,218.80
2019-03-30T22:59:18.745Z,226.33
2019-03-30T23:01:49.634Z,220.70
2019-03-30T23:04:23.547Z,195.53
2019-03-30T23:06:54.903Z,199.67
2019-03-30T23:09:25.034Z,222.25
2019-03-30T23:11:56.117Z,241.17
2019-03-30T23:14:27.035Z,245.50
2019-03-30T23:16:57.944Z,245.60
2019-03-30T23:19:29.275Z,268.40
2019-03-30T23:22:00.521Z,227.67
2019-03-30T23:24:30.418Z,171.87
2019-03-30T23:27:01.314Z,137.47
2019-03-30T23:29:34.280Z,198.50
2019-03-30T23:32:05.199Z,189.47
2019-03-30T23:34:34.458Z,185.80
2019-03-30T23:37:07.575Z,190.40
2019-03-30T23:39:38.746Z,195.13
2019-03-30T23:42:08.728Z,216.33
2019-03-30T23:44:43.395Z,273.40
2019-03-30T23:47:16.275Z,277.47
2019-03-30T23:49:49.986Z,239.53
2019-03-30T23:52:21.862Z,231.33
2019-03-30T23:54:53.169Z,174.12
2019-03-30T23:57:23.309Z,178.60
2019-03-30T23:59:54.698Z,179.33
